Time;durP1;ratioP1;P1;durP2;ratioP2;P2;SDS_P1;SDS_P2;PMS_P1;PMS_P2;Temp;Humidity;BMP_temperature;BMP_pressure;BME280_temperature;BME280_humidity;BME280_pressure;Samples;Min_cycle;Max_cycle;Signal;HPM_P1;HPM_P2
2021/05/06 00:32:48;;;;;;;5.10;3.08;;;;;;;4.55;70.54;96429.05;1701240;81;25531;-82
2021/05/06 00:35:14;;;;;;;6.05;3.20;;;;;;;4.45;70.64;96441.95;1703406;82;27550;-83
2021/05/06 00:37:55;;;;;;;5.55;3.08;;;;;;;4.31;70.57;96434.86;1701379;82;25585;-82
2021/05/06 00:40:24;;;;;;;8.30;3.67;;;;;;;4.21;70.80;96438.39;1696579;81;25272;-82
2021/05/06 00:43:14;;;;;;;6.95;4.00;;;;;;;4.13;70.93;96437.19;1701107;82;25504;-81
2021/05/06 00:54:23;;;;;;;9.38;4.40;;;;;;;3.95;71.23;96451.04;1703651;83;25647;-81
2021/05/06 01:05:38;;;;;;;5.42;2.83;;;;;;;3.66;71.34;96462.68;1625026;86;25577;-81
2021/05/06 01:08:14;;;;;;;5.00;2.85;;;;;;;3.55;71.46;96460.52;1691270;82;25648;-81
2021/05/06 01:13:36;;;;;;;6.67;3.70;;;;;;;3.48;71.56;96463.14;1658792;82;25381;-81
2021/05/06 01:16:04;;;;;;;4.25;3.30;;;;;;;3.47;71.57;96464.66;1690317;82;28018;-82
2021/05/06 01:18:32;;;;;;;5.95;2.85;;;;;;;3.39;71.65;96468.25;1704195;82;25532;-81
2021/05/06 01:21:02;;;;;;;8.20;4.60;;;;;;;3.33;71.64;96477.03;1706129;82;25536;-81
2021/05/06 01:23:33;;;;;;;10.58;4.58;;;;;;;3.23;71.65;96472.52;1683278;82;25621;-81
2021/05/06 01:26:17;;;;;;;12.95;5.53;;;;;;;3.14;71.84;96481.11;1677465;84;25285;-81
2021/05/06 01:28:48;;;;;;;11.78;5.90;;;;;;;3.08;71.96;96477.88;1704148;82;27574;-81
2021/05/06 01:31:18;;;;;;;7.17;3.65;;;;;;;3.03;72.12;96479.44;1703248;82;25579;-81
2021/05/06 01:33:50;;;;;;;4.80;2.90;;;;;;;3.02;72.23;96475.94;1703185;82;25613;-82
2021/05/06 01:36:21;;;;;;;;;;;;;;;3.04;72.27;96475.75;1706070;82;25272;-82
2021/05/06 01:39:10;;;;;;;8.80;3.90;;;;;;;3.05;72.46;96475.58;1703648;82;25560;-81
2021/05/06 01:41:49;;;;;;;6.53;3.02;;;;;;;3.07;72.42;96478.88;1704537;83;27514;-83
2021/05/06 01:44:31;;;;;;;7.78;3.02;;;;;;;3.06;72.41;96474.56;1707273;84;25254;-82
2021/05/06 01:47:03;;;;;;;6.87;3.47;;;;;;;3.11;72.43;96474.84;1644476;85;25658;-81
2021/05/06 01:49:46;;;;;;;6.85;3.58;;;;;;;3.16;72.45;96475.09;1703607;82;25611;-82
2021/05/06 01:57:50;;;;;;;5.60;3.47;;;;;;;3.17;72.20;96480.74;1678627;82;25561;-82
2021/05/06 02:00:19;;;;;;;10.93;3.45;;;;;;;3.09;72.22;96482.20;1702960;82;25569;-82
2021/05/06 02:02:49;;;;;;;5.28;2.72;;;;;;;3.08;72.28;96488.54;1673696;82;25572;-81
2021/05/06 02:05:20;;;;;;;7.55;3.83;;;;;;;3.02;72.16;96497.27;1673992;83;25554;-82
2021/05/06 02:07:49;;;;;;;7.08;3.27;;;;;;;2.80;72.08;96472.90;1703685;82;27508;-82
2021/05/06 02:10:23;;;;;;;5.85;3.77;;;;;;;2.91;72.17;96500.41;1703806;84;25733;-81
2021/05/06 02:12:51;;;;;;;4.12;3.27;;;;;;;2.95;72.39;96498.20;1703697;82;26101;-82
2021/05/06 02:15:23;;;;;;;5.20;3.47;;;;;;;2.98;72.50;96495.18;1703688;82;25585;-82
2021/05/06 02:20:41;;;;;;;6.22;3.77;;;;;;;3.06;72.53;96511.89;1704138;84;27520;-81
2021/05/06 02:23:11;;;;;;;5.58;3.17;;;;;;;3.03;72.50;96514.92;1683652;82;25299;-81
2021/05/06 02:25:39;;;;;;;5.60;3.72;;;;;;;2.94;72.48;96520.04;1703815;82;25265;-82
2021/05/06 02:28:07;;;;;;;4.78;3.52;;;;;;;2.97;72.82;96518.85;1705801;82;25996;-81
2021/05/06 02:30:47;;;;;;;5.53;3.70;;;;;;;2.96;72.80;96520.69;1721973;82;25989;-81
2021/05/06 02:33:17;;;;;;;8.80;5.17;;;;;;;2.94;72.74;96526.70;1690947;82;27592;-81
2021/05/06 02:35:45;;;;;;;8.00;4.40;;;;;;;2.97;72.89;96523.67;1659767;84;25702;-81
2021/05/06 02:38:13;;;;;;;8.13;5.17;;;;;;;2.95;72.87;96530.20;1701076;83;25522;-81
2021/05/06 02:40:41;;;;;;;6.00;3.15;;;;;;;2.95;72.96;96531.03;1701136;83;25560;-83
2021/05/06 02:43:09;;;;;;;6.83;3.60;;;;;;;2.90;72.96;96531.57;1688081;83;25299;-81
2021/05/06 02:45:39;;;;;;;5.75;3.35;;;;;;;2.92;73.01;96539.39;1694839;83;28083;-82
2021/05/06 02:48:07;;;;;;;5.60;3.27;;;;;;;2.95;73.04;96546.19;1687542;83;25512;-82
2021/05/06 02:50:35;;;;;;;5.17;2.98;;;;;;;2.90;73.08;96545.41;1691712;83;25261;-82
2021/05/06 02:53:07;;;;;;;7.25;2.98;;;;;;;2.94;73.11;96554.70;1700919;83;25780;-82
2021/05/06 02:55:41;;;;;;;7.10;3.65;;;;;;;2.97;73.17;96558.33;1701086;83;25301;-81
2021/05/06 02:58:16;;;;;;;4.67;3.15;;;;;;;2.95;73.19;96565.69;1706735;83;27556;-82
2021/05/06 03:03:48;;;;;;;6.53;4.58;;;;;;;2.94;73.29;96561.36;1617959;87;25668;-82
2021/05/06 03:06:19;;;;;;;8.48;4.90;;;;;;;2.94;73.27;96565.36;1609713;87;25638;-82
2021/05/06 03:08:48;;;;;;;8.90;4.42;;;;;;;2.94;73.22;96571.20;1665528;83;25397;-82
2021/05/06 03:11:31;;;;;;;10.08;4.67;;;;;;;2.84;73.14;96579.47;1709561;82;27508;-81
2021/05/06 03:25:08;;;;;;;10.20;3.12;;;;;;;2.81;73.27;96585.16;1701008;83;27506;-81
2021/05/06 03:27:40;;;;;;;9.45;3.70;;;;;;;2.69;73.11;96590.62;1701162;83;25374;-81
2021/05/06 03:30:24;;;;;;;5.90;3.87;;;;;;;2.61;73.22;96588.05;1700663;83;25575;-81
2021/05/06 03:32:49;;;;;;;8.05;4.53;;;;;;;2.64;73.39;96599.67;1715180;82;25342;-81
2021/05/06 03:35:17;;;;;;;10.68;5.00;;;;;;;2.61;73.37;96597.37;1663851;81;25292;-81
2021/05/06 03:43:39;;;;;;;10.98;5.22;;;;;;;2.57;73.33;96612.05;1720805;81;25603;-82
2021/05/06 04:16:52;;;;;;;10.00;5.55;;;;;;;2.72;74.14;96644.39;1645400;86;26123;-81
2021/05/06 04:21:30;;;;;;;13.68;5.80;;;;;;;2.81;74.13;96645.13;1649515;84;27458;-81
2021/05/06 04:22:22;;;;;;;11.15;5.28;;;;;;;2.87;74.16;96647.09;1672172;84;25349;-81
2021/05/06 04:27:30;;;;;;;6.08;3.70;;;;;;;3.00;74.23;96647.79;1665635;84;25629;-81
2021/05/06 04:30:18;;;;;;;7.65;3.75;;;;;;;3.02;74.28;96645.77;1652550;84;25639;-81
2021/05/06 04:35:40;;;;;;;5.05;3.30;;;;;;;3.12;74.28;96649.00;1654432;85;25500;-80
2021/05/06 04:41:12;;;;;;;9.53;4.22;;;;;;;3.32;74.58;96645.27;1797550;78;35281;-80
2021/05/06 04:54:48;;;;;;;5.83;3.72;;;;;;;3.70;74.59;96661.47;1718949;83;26371;-80
2021/05/06 05:06:03;;;;;;;5.85;2.65;;;;;;;4.31;73.37;96655.27;1615785;88;25782;-80
2021/05/06 05:08:36;;;;;;;6.42;3.00;;;;;;;4.47;73.07;96661.68;1633705;84;26051;-80
2021/05/06 05:19:46;;;;;;;3.60;2.00;;;;;;;4.98;71.98;96676.22;1856599;76;28654;-80
2021/05/06 05:25:01;;;;;;;2.98;2.02;;;;;;;5.22;71.29;96677.11;1851836;77;25763;-80
2021/05/06 05:27:28;;;;;;;5.33;2.67;;;;;;;5.33;70.75;96679.24;1853729;77;25819;-81
2021/05/06 05:29:56;;;;;;;7.22;2.67;;;;;;;5.42;70.57;96686.63;1830510;76;25761;-80
2021/05/06 05:32:24;;;;;;;4.25;2.15;;;;;;;5.48;70.23;96687.67;1830230;77;27498;-82
2021/05/06 05:34:57;;;;;;;3.17;2.10;;;;;;;5.53;70.03;96686.59;1853386;76;25744;-81
2021/05/06 05:37:25;;;;;;;3.35;2.83;;;;;;;5.55;69.67;96684.55;1855529;77;25670;-81
2021/05/06 05:42:49;;;;;;;4.22;2.47;;;;;;;5.61;69.21;96687.75;1841736;77;25733;-80
2021/05/06 05:45:38;;;;;;;5.40;2.12;;;;;;;5.64;68.91;96685.52;1838253;77;27497;-80
2021/05/06 05:56:09;;;;;;;4.72;2.50;;;;;;;5.94;68.08;96694.13;1840357;77;25839;-80
2021/05/06 05:58:36;;;;;;;5.60;2.20;;;;;;;6.06;67.88;96685.83;1824076;76;28416;-81
2021/05/06 06:01:04;;;;;;;3.85;2.65;;;;;;;6.19;67.67;96686.91;1848383;76;25831;-80
2021/05/06 06:03:31;;;;;;;2.92;2.05;;;;;;;6.30;67.54;96679.10;1820069;77;25775;-80
2021/05/06 06:06:02;;;;;;;5.60;1.95;;;;;;;6.42;67.27;96685.52;1823640;77;25734;-80
2021/05/06 06:08:31;;;;;;;4.97;1.87;;;;;;;6.53;66.83;96681.42;1820805;76;25887;-80
2021/05/06 06:10:59;;;;;;;3.20;2.20;;;;;;;6.60;66.28;96676.91;1821738;76;28473;-82
2021/05/06 06:13:27;;;;;;;2.02;1.80;;;;;;;6.68;65.65;96690.63;1842158;77;25933;-83
2021/05/06 06:16:00;;;;;;;4.03;2.30;;;;;;;6.73;65.12;96684.15;1843298;77;25774;-81
2021/05/06 06:18:33;;;;;;;;;;;;;;;6.77;64.47;96684.86;1816319;76;26075;-79
2021/05/06 06:21:02;;;;;;;5.85;2.30;;;;;;;6.83;64.14;96679.20;1826274;76;25841;-81
2021/05/06 06:23:29;;;;;;;3.45;2.40;;;;;;;6.94;63.83;96685.30;1838741;77;27545;-81
2021/05/06 06:25:59;;;;;;;4.25;1.92;;;;;;;7.08;64.43;96687.47;1804173;77;25765;-81
2021/05/06 06:28:35;;;;;;;2.60;1.75;;;;;;;7.25;63.71;96699.42;1805352;76;25805;-80
2021/05/06 06:30:57;;;;;;;2.77;1.77;;;;;;;7.30;62.75;96690.75;1826542;76;26168;-81
2021/05/06 06:33:24;;;;;;;4.53;2.17;;;;;;;7.28;61.98;96693.64;1825364;77;25315;-83
2021/05/06 06:35:52;;;;;;;4.72;1.90;;;;;;;7.26;61.53;96705.09;1843800;77;28357;-82
2021/05/06 06:38:20;;;;;;;5.70;1.87;;;;;;;7.26;61.22;96701.07;1851715;77;25763;-80
2021/05/06 06:40:47;;;;;;;2.17;1.55;;;;;;;7.34;61.39;96702.22;1832712;76;26276;-81
2021/05/06 06:43:15;;;;;;;4.05;1.87;;;;;;;7.40;61.44;96701.37;1840914;77;25786;-79
2021/05/06 06:45:42;;;;;;;5.00;1.80;;;;;;;7.45;60.84;96699.42;1815118;77;26300;-81
2021/05/06 06:48:12;;;;;;;2.92;1.80;;;;;;;7.53;60.87;96698.67;1815014;77;28473;-80
2021/05/06 06:50:41;;;;;;;5.10;1.77;;;;;;;7.59;60.60;96703.73;1820247;76;25800;-81
2021/05/06 06:53:09;;;;;;;2.05;1.75;;;;;;;7.63;59.87;96709.49;1816261;77;26520;-81
2021/05/06 06:55:37;;;;;;;2.98;1.70;;;;;;;7.59;59.26;96704.56;1823342;77;25927;-82
2021/05/06 06:58:14;;;;;;;3.83;1.77;;;;;;;7.59;58.62;96707.77;1850141;77;25697;-81
2021/05/06 07:00:43;;;;;;;2.70;1.65;;;;;;;7.61;58.79;96711.05;1830179;76;26776;-81
2021/05/06 07:03:11;;;;;;;2.05;1.65;;;;;;;7.66;58.68;96705.05;1831646;76;26325;-81
2021/05/06 07:05:40;;;;;;;3.02;1.67;;;;;;;7.71;58.86;96705.27;1813386;76;26090;-80
2021/05/06 07:08:26;;;;;;;3.10;1.60;;;;;;;7.80;58.43;96709.37;1849632;77;25574;-80
2021/05/06 07:10:56;;;;;;;6.05;1.60;;;;;;;7.80;58.23;96703.48;1835261;77;25618;-81
2021/05/06 07:13:25;;;;;;;2.30;1.60;;;;;;;7.84;57.54;96706.05;1834974;77;28243;-81
2021/05/06 07:16:01;;;;;;;2.05;1.45;;;;;;;7.88;57.21;96706.44;1834469;77;25531;-81
2021/05/06 07:18:31;;;;;;;3.45;1.70;;;;;;;7.94;57.16;96710.98;1835667;77;25822;-81
2021/05/06 07:21:00;;;;;;;2.85;1.67;;;;;;;8.08;57.59;96700.50;1842659;77;26460;-81
2021/05/06 07:23:29;;;;;;;4.40;1.85;;;;;;;8.24;57.29;96708.06;1834955;77;25723;-81
2021/05/06 07:25:57;;;;;;;3.08;1.70;;;;;;;8.24;55.71;96705.38;1835896;77;28536;-82
2021/05/06 07:28:38;;;;;;;4.60;1.75;;;;;;;8.25;56.06;96705.69;1837726;77;26167;-80
2021/05/06 07:31:08;;;;;;;3.08;1.80;;;;;;;8.35;56.26;96701.73;1834933;77;26551;-82
2021/05/06 07:33:35;;;;;;;3.02;1.50;;;;;;;8.57;56.35;96701.75;1833810;77;27143;-81
2021/05/06 07:36:04;;;;;;;4.50;1.80;;;;;;;8.77;56.04;96702.44;1830635;77;25730;-81
2021/05/06 07:38:32;;;;;;;3.27;1.98;;;;;;;9.08;55.98;96689.99;1829492;77;28375;-82
2021/05/06 07:41:01;;;;;;;2.77;1.77;;;;;;;9.38;54.84;96701.77;1818966;77;25799;-81
2021/05/06 07:43:30;;;;;;;2.50;1.65;;;;;;;9.73;55.02;96700.19;1833467;77;25944;-81
2021/05/06 07:46:01;;;;;;;3.12;1.80;;;;;;;10.08;54.11;96694.20;1814234;77;25814;-80
2021/05/06 07:48:28;;;;;;;3.60;1.65;;;;;;;10.28;53.97;96697.50;1842696;77;25787;-81
2021/05/06 07:50:57;;;;;;;2.98;1.95;;;;;;;10.38;53.64;96687.03;1834921;77;28546;-80
2021/05/06 07:53:27;;;;;;;2.12;1.52;;;;;;;10.64;53.95;96689.05;1838433;77;25657;-81
2021/05/06 07:55:56;;;;;;;1.80;1.30;;;;;;;10.73;53.15;96689.04;1832877;77;25716;-82
2021/05/06 07:58:23;;;;;;;5.30;1.70;;;;;;;10.68;52.38;96680.80;1835094;76;25936;-82
2021/05/06 08:00:51;;;;;;;4.75;1.60;;;;;;;10.80;52.05;96693.80;1830959;76;25827;-82
2021/05/06 08:03:19;;;;;;;4.92;1.67;;;;;;;10.87;51.72;96685.06;1840263;77;27483;-82
2021/05/06 08:05:47;;;;;;;5.28;1.80;;;;;;;10.94;51.89;96692.56;1831217;77;25752;-81
2021/05/06 08:08:15;;;;;;;2.80;1.40;;;;;;;11.06;51.94;96696.11;1827436;77;25698;-80
2021/05/06 08:10:42;;;;;;;3.05;1.40;;;;;;;11.38;51.95;96692.58;1835673;77;25386;-80
2021/05/06 08:13:10;;;;;;;4.50;1.32;;;;;;;11.40;50.40;96686.94;1818360;76;25983;-82
2021/05/06 08:15:37;;;;;;;2.42;1.57;;;;;;;11.35;50.37;96689.53;1808626;77;27497;-81
2021/05/06 08:18:05;;;;;;;6.25;1.32;;;;;;;11.46;49.85;96690.07;1836594;77;25805;-82
2021/05/06 08:20:32;;;;;;;2.22;1.40;;;;;;;11.73;49.76;96699.34;1807783;77;25655;-81
2021/05/06 08:23:00;;;;;;;3.42;1.65;;;;;;;11.86;48.69;96695.08;1840378;77;25691;-81
2021/05/06 08:25:27;;;;;;;2.27;1.40;;;;;;;11.86;47.96;96689.67;1842777;77;26448;-83
2021/05/06 08:27:56;;;;;;;3.83;1.30;;;;;;;11.95;47.65;96702.32;1847120;77;27573;-81
2021/05/06 08:30:26;;;;;;;2.00;1.82;;;;;;;12.05;46.65;96688.19;1848719;77;25728;-81
2021/05/06 08:32:55;;;;;;;2.72;1.45;;;;;;;12.23;46.57;96686.14;1809930;77;25720;-82
2021/05/06 08:35:22;;;;;;;1.82;1.10;;;;;;;12.35;45.88;96683.40;1821093;77;25784;-83
2021/05/06 08:37:50;;;;;;;1.42;1.17;;;;;;;12.69;45.63;96678.09;1816439;77;25707;-83
2021/05/06 08:40:18;;;;;;;2.27;1.57;;;;;;;12.94;45.43;96677.20;1794054;77;28549;-82
2021/05/06 08:42:46;;;;;;;2.58;1.30;;;;;;;13.07;45.30;96671.48;1802750;77;25666;-81
2021/05/06 08:45:15;;;;;;;1.65;1.32;;;;;;;13.12;44.42;96679.70;1801001;77;25912;-82
2021/05/06 08:47:46;;;;;;;2.60;1.57;;;;;;;13.25;44.42;96684.84;1777797;77;25817;-82
2021/05/06 08:50:19;;;;;;;1.67;1.37;;;;;;;13.61;44.71;96675.92;1842506;77;25758;-83
2021/05/06 08:52:49;;;;;;;5.47;1.37;;;;;;;14.10;44.48;96679.61;1803462;77;27101;-83
2021/05/06 08:55:18;;;;;;;3.60;1.40;;;;;;;14.57;43.29;96669.63;1835558;77;26036;-83
2021/05/06 08:57:46;;;;;;;2.37;1.20;;;;;;;14.57;42.79;96667.73;1808441;77;25316;-82
2021/05/06 09:00:17;;;;;;;4.75;1.27;;;;;;;14.77;41.94;96669.84;1777555;78;25828;-81
2021/05/06 09:02:48;;;;;;;2.10;1.32;;;;;;;14.96;38.59;96662.17;1831685;77;25726;-85
2021/05/06 09:05:17;;;;;;;1.80;1.17;;;;;;;15.08;39.58;96664.19;1816931;77;28412;-82
2021/05/06 09:07:48;;;;;;;2.98;1.57;;;;;;;15.31;38.61;96656.23;1817420;77;25701;-81
2021/05/06 09:10:38;;;;;;;3.10;1.85;;;;;;;15.42;38.57;96669.66;1821643;77;25753;-84
2021/05/06 09:13:29;;;;;;;4.85;1.42;;;;;;;15.11;38.23;96669.09;1816142;77;25847;-83
2021/05/06 09:15:57;;;;;;;4.22;1.70;;;;;;;14.54;39.09;96662.80;1835261;77;25897;-83
2021/05/06 09:18:47;;;;;;;2.37;1.40;;;;;;;14.58;39.80;96661.77;1835048;77;27518;-83
2021/05/06 09:24:19;;;;;;;4.22;2.02;;;;;;;14.54;37.61;96661.98;1812177;76;25749;-79
2021/05/06 09:26:46;;;;;;;3.60;0.98;;;;;;;14.36;38.44;96664.48;1797126;78;25831;-82
2021/05/06 09:29:34;;;;;;;2.72;1.30;;;;;;;14.17;38.50;96667.20;1778657;78;27493;-82
2021/05/06 09:32:19;;;;;;;3.33;1.42;;;;;;;14.09;38.18;96666.30;1794452;78;26169;-81
2021/05/06 09:34:49;;;;;;;1.20;1.10;;;;;;;14.06;38.60;96669.79;1782967;78;25736;-83
2021/05/06 09:37:32;;;;;;;2.65;1.65;;;;;;;13.96;37.78;96658.80;1795441;78;25800;-82
2021/05/06 09:40:03;;;;;;;2.90;1.30;;;;;;;13.86;37.40;96674.95;1791669;78;25693;-81
2021/05/06 09:42:47;;;;;;;5.15;1.90;;;;;;;13.73;37.81;96669.87;1782327;78;27477;-82
2021/05/06 09:45:26;;;;;;;2.42;1.62;;;;;;;13.64;37.09;96670.01;1798834;78;26099;-81
2021/05/06 09:48:15;;;;;;;2.67;1.55;;;;;;;13.46;37.10;96646.68;1787694;78;25729;-84
2021/05/06 09:50:46;;;;;;;1.75;1.27;;;;;;;13.64;37.89;96656.45;1776259;78;25787;-80
2021/05/06 09:53:18;;;;;;;2.20;1.62;;;;;;;13.77;37.56;96672.34;1795440;78;25753;-82
2021/05/06 09:55:47;;;;;;;2.27;1.60;;;;;;;13.58;36.41;96669.09;1776341;78;27478;-81
2021/05/06 09:58:25;;;;;;;2.12;1.22;;;;;;;13.55;36.86;96659.27;1801202;78;25775;-80
2021/05/06 10:00:54;;;;;;;1.25;1.15;;;;;;;13.71;36.58;96657.08;1827098;77;25694;-81
2021/05/06 10:03:26;;;;;;;4.37;1.45;;;;;;;13.64;36.63;96660.52;1781224;78;25800;-82
2021/05/06 10:06:19;;;;;;;1.87;1.10;;;;;;;13.60;36.47;96659.36;1873080;76;25690;-79
2021/05/06 10:08:48;;;;;;;1.45;1.17;;;;;;;13.69;36.71;96669.53;1839523;77;26134;-80
2021/05/06 10:11:20;;;;;;;4.40;1.45;;;;;;;13.63;35.69;96673.25;1841645;77;28381;-84
2021/05/06 10:13:50;;;;;;;2.30;1.27;;;;;;;13.43;36.42;96672.09;1852141;76;26108;-81
2021/05/06 10:16:17;;;;;;;3.47;1.52;;;;;;;13.36;37.55;96666.03;1848208;77;25775;-85
2021/05/06 10:18:45;;;;;;;2.72;1.30;;;;;;;13.36;37.59;96664.14;1813863;77;25780;-82
2021/05/06 10:21:16;;;;;;;2.42;1.05;;;;;;;13.67;38.63;96665.42;1815748;77;25679;-82
2021/05/06 10:23:54;;;;;;;4.33;1.72;;;;;;;13.93;37.40;96668.79;1828921;77;28617;-82
2021/05/06 10:26:24;;;;;;;2.40;1.27;;;;;;;13.99;36.29;96675.12;1846511;77;25623;-82
2021/05/06 10:28:53;;;;;;;5.25;1.45;;;;;;;13.72;36.20;96679.07;1832316;77;25794;-81
2021/05/06 10:31:21;;;;;;;3.00;1.80;;;;;;;13.40;36.38;96681.56;1850459;77;25795;-82
2021/05/06 10:33:48;;;;;;;2.47;1.40;;;;;;;13.25;37.52;96671.83;1829198;77;25644;-81
2021/05/06 10:36:18;;;;;;;5.50;1.22;;;;;;;13.18;36.94;96674.68;1847815;77;27479;-82
2021/05/06 10:38:48;;;;;;;2.45;1.12;;;;;;;13.03;37.62;96664.92;1843470;77;25721;-81
2021/05/06 10:41:29;;;;;;;2.65;1.60;;;;;;;13.20;38.09;96667.12;1804947;77;25697;-82
2021/05/06 10:44:06;;;;;;;2.33;1.65;;;;;;;13.25;38.12;96665.05;1840281;77;26312;-82
2021/05/06 10:46:59;;;;;;;2.40;1.25;;;;;;;13.24;38.49;96671.00;1806515;77;26227;-82
2021/05/06 10:49:43;;;;;;;2.00;1.30;;;;;;;13.21;38.32;96680.97;1850636;77;27539;-81
2021/05/06 10:52:12;;;;;;;2.35;1.30;;;;;;;13.13;38.50;96674.58;1833438;77;26077;-80
2021/05/06 10:54:50;;;;;;;2.02;1.40;;;;;;;13.04;38.08;96688.22;1817272;77;25732;-83
2021/05/06 10:57:24;;;;;;;2.87;1.30;;;;;;;12.97;37.64;96674.02;1820008;77;26427;-81
2021/05/06 10:59:52;;;;;;;5.45;1.67;;;;;;;13.01;38.57;96672.47;1835238;76;25905;-84
2021/05/06 11:02:46;;;;;;;1.62;0.90;;;;;;;13.00;37.87;96676.24;1847857;77;28383;-81
2021/05/06 11:05:20;;;;;;;2.67;1.75;;;;;;;12.87;38.18;96667.89;1828347;77;25754;-83
2021/05/06 11:08:20;;;;;;;5.25;1.80;;;;;;;12.81;38.11;96672.09;1823340;77;25347;-81
2021/05/06 11:10:53;;;;;;;3.90;1.50;;;;;;;12.60;38.16;96663.59;1843272;77;26253;-82
2021/05/06 11:13:23;;;;;;;3.95;2.22;;;;;;;12.57;38.63;96668.13;1847644;77;25800;-82
2021/05/06 11:15:50;;;;;;;4.22;1.40;;;;;;;12.57;38.52;96670.84;1808246;77;28461;-83
2021/05/06 11:18:44;;;;;;;4.92;1.77;;;;;;;12.52;38.52;96677.53;1838283;77;25718;-82
2021/05/06 11:21:36;;;;;;;1.77;1.35;;;;;;;12.41;38.53;96678.39;1824334;77;25715;-82
2021/05/06 11:24:25;;;;;;;3.50;2.25;;;;;;;12.29;38.27;96672.20;1810215;77;26144;-81
2021/05/06 11:27:08;;;;;;;5.15;2.55;;;;;;;12.13;38.90;96660.76;1824215;77;26440;-82
2021/05/06 11:29:39;;;;;;;3.02;1.20;;;;;;;12.14;39.77;96667.28;1822432;77;27347;-81
2021/05/06 11:32:34;;;;;;;2.90;1.55;;;;;;;12.10;39.27;96666.64;1834031;77;25691;-83
2021/05/06 11:35:02;;;;;;;2.50;1.12;;;;;;;12.03;39.50;96660.02;1832217;77;25665;-80
2021/05/06 11:37:32;;;;;;;2.40;1.37;;;;;;;12.04;39.50;96651.38;1842847;77;25786;-81
2021/05/06 11:40:11;;;;;;;2.22;1.20;;;;;;;12.05;39.66;96646.27;1812890;77;26424;-81
2021/05/06 11:42:42;;;;;;;2.25;1.22;;;;;;;12.10;39.40;96647.70;1842789;77;27547;-81
2021/05/06 11:45:23;;;;;;;3.85;1.52;;;;;;;12.20;39.48;96639.78;1810630;77;25725;-82
2021/05/06 11:47:53;;;;;;;1.98;1.22;;;;;;;12.30;39.69;96639.19;1815562;77;25881;-81
2021/05/06 11:50:34;;;;;;;2.80;1.52;;;;;;;12.39;39.35;96633.15;1847720;77;25812;-83
2021/05/06 11:53:03;;;;;;;2.52;1.15;;;;;;;12.46;39.50;96635.17;1813073;77;25645;-80
2021/05/06 11:55:41;;;;;;;3.08;1.15;;;;;;;12.57;38.96;96637.53;1813436;77;28458;-80
2021/05/06 11:58:11;;;;;;;4.33;1.40;;;;;;;12.56;38.26;96629.94;1808611;77;25833;-81
2021/05/06 12:00:40;;;;;;;3.20;1.35;;;;;;;12.84;38.90;96625.03;1814585;77;26381;-82
2021/05/06 12:03:13;;;;;;;4.35;1.40;;;;;;;13.05;38.59;96623.48;1844849;77;26304;-81
2021/05/06 12:05:59;;;;;;;3.12;1.90;;;;;;;13.08;38.28;96616.23;1854042;77;25791;-81
2021/05/06 12:08:45;;;;;;;3.00;1.32;;;;;;;13.24;37.88;96604.61;1849584;76;28514;-81
2021/05/06 12:11:13;;;;;;;2.33;1.15;;;;;;;13.39;37.64;96609.98;1822436;77;25724;-79
2021/05/06 12:13:45;;;;;;;1.60;1.05;;;;;;;13.63;37.62;96611.42;1851930;77;25689;-83
2021/05/06 12:16:26;;;;;;;3.30;1.20;;;;;;;13.64;36.57;96610.34;1858313;77;25797;-82
2021/05/06 12:19:12;;;;;;;2.45;1.20;;;;;;;13.60;36.18;96620.05;1857256;77;25838;-84
2021/05/06 12:21:46;;;;;;;2.27;1.10;;;;;;;13.48;36.57;96613.91;1834473;77;27654;-82
2021/05/06 12:24:31;;;;;;;1.98;1.20;;;;;;;13.26;36.37;96607.07;1857501;77;26191;-86
2021/05/06 12:27:21;;;;;;;3.87;1.35;;;;;;;13.13;37.16;96601.95;1857229;77;25870;-83
2021/05/06 12:29:50;;;;;;;3.75;1.60;;;;;;;13.00;37.34;96612.58;1857990;77;25890;-81
2021/05/06 12:32:24;;;;;;;3.55;1.75;;;;;;;12.92;37.69;96594.03;1858014;77;26314;-82
2021/05/06 12:34:54;;;;;;;3.22;1.25;;;;;;;12.89;38.01;96602.64;1858005;77;27487;-81
2021/05/06 12:37:28;;;;;;;2.47;1.25;;;;;;;12.92;37.88;96589.97;1855045;77;25697;-81
2021/05/06 12:39:56;;;;;;;2.30;1.55;;;;;;;12.89;38.15;96598.05;1824135;77;25817;-83
2021/05/06 12:42:32;;;;;;;2.95;1.20;;;;;;;12.86;38.26;96600.42;1822573;77;25782;-81
2021/05/06 12:45:02;;;;;;;5.12;2.25;;;;;;;12.81;37.83;96580.01;1840814;77;25800;-81
2021/05/06 12:47:34;;;;;;;1.70;1.12;;;;;;;12.80;37.68;96585.95;1857752;77;27535;-82
2021/05/06 12:50:21;;;;;;;1.85;1.30;;;;;;;12.99;37.36;96583.84;1857950;77;26102;-82
2021/05/06 12:52:50;;;;;;;2.02;1.25;;;;;;;13.07;36.74;96587.48;1849569;77;25821;-81
2021/05/06 12:55:25;;;;;;;5.78;1.62;;;;;;;13.30;37.10;96569.72;1822443;77;25343;-83
2021/05/06 12:58:18;;;;;;;2.83;1.30;;;;;;;13.65;37.43;96564.50;1830281;77;25695;-82
2021/05/06 13:00:51;;;;;;;1.90;1.30;;;;;;;13.90;37.38;96553.98;1847065;76;27480;-82
2021/05/06 13:03:19;;;;;;;2.40;1.35;;;;;;;14.06;36.55;96557.17;1852016;77;25963;-81
2021/05/06 13:05:49;;;;;;;5.35;1.75;;;;;;;13.97;36.61;96553.27;1854529;77;25757;-81
2021/05/06 13:08:17;;;;;;;3.33;1.35;;;;;;;13.88;36.85;96553.44;1841347;77;25685;-81
2021/05/06 13:10:47;;;;;;;1.27;1.17;;;;;;;13.83;37.02;96550.66;1818063;77;25830;-81
2021/05/06 13:13:50;;;;;;;7.25;1.47;;;;;;;13.73;36.21;96550.53;1849894;77;27466;-81
2021/05/06 13:16:46;;;;;;;1.42;1.10;;;;;;;13.48;36.50;96547.48;1847866;77;25780;-81
2021/05/06 13:19:16;;;;;;;2.47;1.35;;;;;;;13.31;36.61;96547.50;1838380;77;25785;-81
2021/05/06 13:21:50;;;;;;;5.90;2.22;;;;;;;13.24;36.99;96547.69;1843453;77;27446;-81
2021/05/06 13:24:18;;;;;;;3.12;1.10;;;;;;;13.28;37.59;96551.53;1817412;77;25689;-80
2021/05/06 13:26:47;;;;;;;2.62;1.20;;;;;;;13.31;37.72;96555.10;1824908;77;27588;-82
2021/05/06 13:29:18;;;;;;;1.42;0.95;;;;;;;13.29;37.59;96546.92;1833394;77;25769;-81
2021/05/06 13:31:49;;;;;;;2.17;1.40;;;;;;;13.24;37.57;96552.30;1837917;77;25916;-81
2021/05/06 13:34:27;;;;;;;1.82;1.50;;;;;;;13.23;37.77;96544.69;1795652;77;26012;-81
2021/05/06 13:37:07;;;;;;;4.95;1.52;;;;;;;13.23;37.90;96543.34;1845346;77;26108;-82
2021/05/06 13:39:35;;;;;;;3.58;1.70;;;;;;;13.33;37.65;96548.91;1831869;77;27478;-82
2021/05/06 13:42:02;;;;;;;2.05;1.10;;;;;;;13.23;37.38;96540.63;1841370;77;26250;-81
2021/05/06 13:44:31;;;;;;;2.05;1.17;;;;;;;13.16;37.52;96545.95;1824129;77;25733;-82
2021/05/06 13:47:02;;;;;;;2.05;1.10;;;;;;;13.12;37.53;96542.88;1830185;77;25724;-81
2021/05/06 13:49:34;;;;;;;2.58;1.60;;;;;;;13.16;37.52;96539.97;1772503;77;25392;-84
2021/05/06 13:52:04;;;;;;;7.85;1.72;;;;;;;13.13;37.36;96553.18;1830122;77;28380;-80
2021/05/06 13:54:32;;;;;;;3.98;1.50;;;;;;;13.09;37.59;96535.77;1843248;77;26018;-81
2021/05/06 13:56:59;;;;;;;3.67;1.98;;;;;;;13.09;37.35;96541.19;1817970;77;25757;-83
2021/05/06 13:59:27;;;;;;;5.08;1.70;;;;;;;13.06;37.07;96528.95;1824217;76;25785;-81
2021/05/06 14:01:56;;;;;;;3.90;1.90;;;;;;;13.04;37.21;96529.73;1822763;76;25753;-82
2021/05/06 14:04:24;;;;;;;4.75;2.02;;;;;;;13.22;37.60;96513.77;1839308;77;27488;-81
2021/05/06 14:06:53;;;;;;;3.47;1.50;;;;;;;13.35;37.31;96524.27;1814727;77;25749;-81
2021/05/06 14:09:20;;;;;;;1.72;1.20;;;;;;;13.47;37.58;96545.30;1820734;77;25714;-82
2021/05/06 14:11:50;;;;;;;1.62;1.20;;;;;;;13.53;37.11;96523.95;1843341;76;25790;-82
2021/05/06 14:14:19;;;;;;;2.42;1.50;;;;;;;13.54;36.10;96526.13;1844369;77;26077;-81
2021/05/06 14:16:47;;;;;;;3.35;1.80;;;;;;;13.50;35.89;96514.16;1831490;77;27312;-82
2021/05/06 14:19:15;;;;;;;2.83;1.52;;;;;;;13.54;36.25;96513.39;1828957;77;26123;-82
2021/05/06 14:21:47;;;;;;;3.47;1.45;;;;;;;13.85;36.82;96510.53;1821427;77;26356;-82
2021/05/06 14:24:15;;;;;;;6.90;2.40;;;;;;;14.32;37.02;96508.05;1843898;77;26734;-81
2021/05/06 14:26:45;;;;;;;3.67;2.47;;;;;;;14.62;36.92;96510.25;1827783;77;25786;-81
2021/05/06 14:29:14;;;;;;;4.00;2.27;;;;;;;14.63;36.43;96503.73;1834378;77;27464;-81
2021/05/06 14:31:42;;;;;;;9.55;4.47;;;;;;;14.47;35.70;96499.27;1821287;77;26103;-82
2021/05/06 14:34:10;;;;;;;4.75;2.37;;;;;;;14.27;35.76;96508.53;1821946;77;25671;-79
2021/05/06 14:36:37;;;;;;;6.15;2.60;;;;;;;14.09;35.98;96515.68;1820522;77;26243;-82
2021/05/06 14:39:08;;;;;;;3.75;2.27;;;;;;;13.94;36.29;96511.72;1827460;77;26240;-83
2021/05/06 14:41:38;;;;;;;9.15;4.67;;;;;;;13.74;35.69;96514.20;1854949;77;27474;-82
2021/05/06 14:44:05;;;;;;;6.33;3.77;;;;;;;13.53;35.96;96517.70;1826499;77;25681;-82
2021/05/06 14:46:33;;;;;;;6.17;3.22;;;;;;;13.41;36.24;96519.72;1820567;77;25754;-81